sensor_id;sensor_type;location;lat;lon;timestamp;pressure;altitude;pressure_sealevel;temperature;humidity
48630;BME280;34426;52.180;4.462;2023-05-02T00:02:05;102195.41;;;10.91;83.96
48630;BME280;34426;52.180;4.462;2023-05-02T00:04:30;102188.72;;;10.92;84.50
48630;BME280;34426;52.180;4.462;2023-05-02T00:06:59;102193.59;;;10.96;83.90
48630;BME280;34426;52.180;4.462;2023-05-02T00:09:24;102192.25;;;10.99;84.04
48630;BME280;34426;52.180;4.462;2023-05-02T00:11:51;102193.34;;;10.98;84.52
48630;BME280;34426;52.180;4.462;2023-05-02T00:14:17;102188.63;;;10.98;84.58
48630;BME280;34426;52.180;4.462;2023-05-02T00:16:42;102194.84;;;11.00;85.00
48630;BME280;34426;52.180;4.462;2023-05-02T00:19:08;102192.84;;;10.89;85.80
48630;BME280;34426;52.180;4.462;2023-05-02T00:21:33;102194.44;;;10.97;84.57
48630;BME280;34426;52.180;4.462;2023-05-02T00:23:59;102198.34;;;10.96;85.13
48630;BME280;34426;52.180;4.462;2023-05-02T00:26:25;102205.66;;;10.97;84.69
48630;BME280;34426;52.180;4.462;2023-05-02T00:28:52;102199.06;;;10.91;85.34
48630;BME280;34426;52.180;4.462;2023-05-02T00:31:20;102212.19;;;10.91;84.62
48630;BME280;34426;52.180;4.462;2023-05-02T00:33:46;102208.50;;;10.79;84.02
48630;BME280;34426;52.180;4.462;2023-05-02T00:36:15;102208.50;;;10.79;84.63
48630;BME280;34426;52.180;4.462;2023-05-02T00:38:41;102207.81;;;10.65;84.74
48630;BME280;34426;52.180;4.462;2023-05-02T00:41:07;102211.09;;;10.62;85.24
48630;BME280;34426;52.180;4.462;2023-05-02T00:43:33;102215.53;;;10.70;84.27
48630;BME280;34426;52.180;4.462;2023-05-02T00:46:00;102221.13;;;10.70;82.83
48630;BME280;34426;52.180;4.462;2023-05-02T00:48:26;102211.19;;;10.55;83.47
48630;BME280;34426;52.180;4.462;2023-05-02T00:50:51;102230.13;;;10.53;83.50
48630;BME280;34426;52.180;4.462;2023-05-02T00:53:17;102224.69;;;10.58;82.16
48630;BME280;34426;52.180;4.462;2023-05-02T00:55:52;102224.53;;;10.53;82.55
48630;BME280;34426;52.180;4.462;2023-05-02T00:58:20;102220.50;;;10.68;81.83
48630;BME280;34426;52.180;4.462;2023-05-02T01:01:07;102225.16;;;10.55;82.50
48630;BME280;34426;52.180;4.462;2023-05-02T01:03:43;102229.50;;;10.51;82.84
48630;BME280;34426;52.180;4.462;2023-05-02T01:06:18;102233.16;;;10.52;82.73
48630;BME280;34426;52.180;4.462;2023-05-02T01:08:54;102227.72;;;10.57;82.74
48630;BME280;34426;52.180;4.462;2023-05-02T01:11:36;102234.34;;;10.44;83.00
48630;BME280;34426;52.180;4.462;2023-05-02T01:14:09;102234.50;;;10.49;82.92
48630;BME280;34426;52.180;4.462;2023-05-02T01:16:38;102236.81;;;10.52;81.84
48630;BME280;34426;52.180;4.462;2023-05-02T01:19:04;102242.66;;;10.51;82.48
48630;BME280;34426;52.180;4.462;2023-05-02T01:21:33;102235.88;;;10.40;82.23
48630;BME280;34426;52.180;4.462;2023-05-02T01:24:05;102246.16;;;10.46;82.18
48630;BME280;34426;52.180;4.462;2023-05-02T01:26:35;102242.97;;;10.43;82.39
48630;BME280;34426;52.180;4.462;2023-05-02T01:29:07;102249.41;;;10.43;82.25
48630;BME280;34426;52.180;4.462;2023-05-02T01:31:35;102246.94;;;10.35;80.77
48630;BME280;34426;52.180;4.462;2023-05-02T01:34:05;102248.66;;;10.36;81.50
48630;BME280;34426;52.180;4.462;2023-05-02T01:36:33;102247.56;;;10.37;81.16
48630;BME280;34426;52.180;4.462;2023-05-02T01:39:03;102252.53;;;10.35;80.37
48630;BME280;34426;52.180;4.462;2023-05-02T01:41:31;102248.34;;;10.26;81.09
48630;BME280;34426;52.180;4.462;2023-05-02T01:43:59;102255.16;;;10.30;80.37
48630;BME280;34426;52.180;4.462;2023-05-02T01:46:32;102256.72;;;10.26;79.22
48630;BME280;34426;52.180;4.462;2023-05-02T01:49:01;102260.84;;;10.23;80.01
48630;BME280;34426;52.180;4.462;2023-05-02T01:51:31;102259.53;;;10.26;79.43
48630;BME280;34426;52.180;4.462;2023-05-02T01:53:59;102266.44;;;10.23;80.00
48630;BME280;34426;52.180;4.462;2023-05-02T01:56:30;102272.41;;;10.27;79.99
48630;BME280;34426;52.180;4.462;2023-05-02T01:58:57;102274.59;;;10.25;79.43
48630;BME280;34426;52.180;4.462;2023-05-02T02:01:24;102281.81;;;10.08;79.16
48630;BME280;34426;52.180;4.462;2023-05-02T02:03:53;102285.25;;;10.10;79.01
48630;BME280;34426;52.180;4.462;2023-05-02T02:06:20;102302.63;;;10.12;79.09
48630;BME280;34426;52.180;4.462;2023-05-02T02:08:46;102301.38;;;10.08;78.64
48630;BME280;34426;52.180;4.462;2023-05-02T02:11:17;102298.75;;;10.13;77.62
48630;BME280;34426;52.180;4.462;2023-05-02T02:13:48;102311.66;;;10.14;77.50
48630;BME280;34426;52.180;4.462;2023-05-02T02:16:24;102305.25;;;10.07;77.21
48630;BME280;34426;52.180;4.462;2023-05-02T02:19:02;102316.03;;;10.03;77.65
48630;BME280;34426;52.180;4.462;2023-05-02T02:21:33;102316.50;;;10.00;77.03
48630;BME280;34426;52.180;4.462;2023-05-02T02:24:01;102307.88;;;10.01;74.90
48630;BME280;34426;52.180;4.462;2023-05-02T02:26:28;102310.06;;;9.99;74.79
48630;BME280;34426;52.180;4.462;2023-05-02T02:28:54;102314.41;;;9.95;75.28
48630;BME280;34426;52.180;4.462;2023-05-02T02:31:20;102319.06;;;10.01;74.45
48630;BME280;34426;52.180;4.462;2023-05-02T02:33:46;102323.13;;;10.06;73.42
48630;BME280;34426;52.180;4.462;2023-05-02T02:36:17;102313.03;;;10.05;73.32
48630;BME280;34426;52.180;4.462;2023-05-02T02:38:53;102318.16;;;10.08;74.64
48630;BME280;34426;52.180;4.462;2023-05-02T02:41:24;102327.44;;;10.01;75.31
48630;BME280;34426;52.180;4.462;2023-05-02T02:43:58;102330.69;;;9.98;74.86
48630;BME280;34426;52.180;4.462;2023-05-02T02:46:31;102329.53;;;9.88;75.49
48630;BME280;34426;52.180;4.462;2023-05-02T02:49:11;102333.50;;;9.98;75.95
48630;BME280;34426;52.180;4.462;2023-05-02T02:51:45;102338.47;;;9.96;76.06
48630;BME280;34426;52.180;4.462;2023-05-02T02:54:20;102339.84;;;9.87;77.00
48630;BME280;34426;52.180;4.462;2023-05-02T02:57:00;102334.66;;;9.91;76.85
48630;BME280;34426;52.180;4.462;2023-05-02T02:59:28;102336.78;;;9.95;77.14
48630;BME280;34426;52.180;4.462;2023-05-02T03:02:02;102338.47;;;9.96;76.44
48630;BME280;34426;52.180;4.462;2023-05-02T03:04:36;102349.78;;;9.83;78.02
48630;BME280;34426;52.180;4.462;2023-05-02T03:07:03;102349.59;;;9.78;77.54
48630;BME280;34426;52.180;4.462;2023-05-02T03:09:44;102352.78;;;9.82;78.58
48630;BME280;34426;52.180;4.462;2023-05-02T03:12:13;102359.22;;;9.82;77.23
48630;BME280;34426;52.180;4.462;2023-05-02T03:14:42;102354.13;;;9.73;78.82
48630;BME280;34426;52.180;4.462;2023-05-02T03:17:11;102359.94;;;9.71;77.52
48630;BME280;34426;52.180;4.462;2023-05-02T03:19:39;102368.28;;;9.78;76.61
48630;BME280;34426;52.180;4.462;2023-05-02T03:22:06;102361.22;;;9.75;76.75
48630;BME280;34426;52.180;4.462;2023-05-02T03:24:35;102368.50;;;9.76;75.53
48630;BME280;34426;52.180;4.462;2023-05-02T03:27:00;102366.63;;;9.70;74.90
48630;BME280;34426;52.180;4.462;2023-05-02T03:29:26;102376.72;;;9.71;74.51
48630;BME280;34426;52.180;4.462;2023-05-02T03:31:55;102370.03;;;9.72;74.04
48630;BME280;34426;52.180;4.462;2023-05-02T03:34:20;102383.38;;;9.70;73.67
48630;BME280;34426;52.180;4.462;2023-05-02T03:36:49;102375.22;;;9.68;74.15
48630;BME280;34426;52.180;4.462;2023-05-02T03:39:16;102382.16;;;9.59;74.99
48630;BME280;34426;52.180;4.462;2023-05-02T03:41:44;102378.25;;;9.67;75.29
48630;BME280;34426;52.180;4.462;2023-05-02T03:44:10;102386.41;;;9.68;74.84
48630;BME280;34426;52.180;4.462;2023-05-02T03:46:38;102387.31;;;9.56;75.58
48630;BME280;34426;52.180;4.462;2023-05-02T03:49:04;102394.16;;;9.66;76.02
48630;BME280;34426;52.180;4.462;2023-05-02T03:51:29;102395.19;;;9.72;75.30
48630;BME280;34426;52.180;4.462;2023-05-02T03:53:54;102398.47;;;9.62;75.22
48630;BME280;34426;52.180;4.462;2023-05-02T03:56:21;102405.81;;;9.57;75.11
48630;BME280;34426;52.180;4.462;2023-05-02T03:58:47;102408.81;;;9.55;75.44
48630;BME280;34426;52.180;4.462;2023-05-02T04:01:13;102407.38;;;9.53;74.94
48630;BME280;34426;52.180;4.462;2023-05-02T04:03:38;102411.41;;;9.57;75.17
48630;BME280;34426;52.180;4.462;2023-05-02T04:06:04;102421.78;;;9.50;75.11
48630;BME280;34426;52.180;4.462;2023-05-02T04:08:29;102421.78;;;9.50;75.15
48630;BME280;34426;52.180;4.462;2023-05-02T04:10:55;102419.63;;;9.52;74.74
48630;BME280;34426;52.180;4.462;2023-05-02T04:13:22;102420.84;;;9.56;74.64
48630;BME280;34426;52.180;4.462;2023-05-02T04:15:48;102421.69;;;9.63;73.91
48630;BME280;34426;52.180;4.462;2023-05-02T04:18:16;102423.84;;;9.61;73.69
48630;BME280;34426;52.180;4.462;2023-05-02T04:20:42;102424.28;;;9.58;73.10
48630;BME280;34426;52.180;4.462;2023-05-02T04:23:08;102430.78;;;9.52;74.34
48630;BME280;34426;52.180;4.462;2023-05-02T04:25:33;102428.25;;;9.44;75.86
48630;BME280;34426;52.180;4.462;2023-05-02T04:27:59;102437.50;;;9.38;76.26
48630;BME280;34426;52.180;4.462;2023-05-02T04:30:25;102442.22;;;9.37;76.16
48630;BME280;34426;52.180;4.462;2023-05-02T04:32:51;102448.22;;;9.41;76.18
48630;BME280;34426;52.180;4.462;2023-05-02T04:35:19;102448.03;;;9.36;75.65
48630;BME280;34426;52.180;4.462;2023-05-02T04:37:45;102456.16;;;9.44;76.42
48630;BME280;34426;52.180;4.462;2023-05-02T04:40:14;102456.38;;;9.49;76.78
48630;BME280;34426;52.180;4.462;2023-05-02T04:42:40;102467.78;;;9.41;76.79
48630;BME280;34426;52.180;4.462;2023-05-02T04:45:06;102466.91;;;9.47;76.82
48630;BME280;34426;52.180;4.462;2023-05-02T04:47:34;102464.78;;;9.36;76.07
48630;BME280;34426;52.180;4.462;2023-05-02T04:49:59;102477.91;;;9.28;75.23
48630;BME280;34426;52.180;4.462;2023-05-02T04:52:25;102482.41;;;9.29;75.75
48630;BME280;34426;52.180;4.462;2023-05-02T04:54:50;102484.78;;;9.32;75.32
48630;BME280;34426;52.180;4.462;2023-05-02T04:57:15;102487.13;;;9.36;74.79
48630;BME280;34426;52.180;4.462;2023-05-02T04:59:41;102483.25;;;9.37;74.48
48630;BME280;34426;52.180;4.462;2023-05-02T05:02:06;102484.53;;;9.41;74.22
48630;BME280;34426;52.180;4.462;2023-05-02T05:04:34;102481.09;;;9.45;73.78
48630;BME280;34426;52.180;4.462;2023-05-02T05:06:59;102489.47;;;9.39;73.07
48630;BME280;34426;52.180;4.462;2023-05-02T05:09:24;102486.72;;;9.32;73.29
48630;BME280;34426;52.180;4.462;2023-05-02T05:11:50;102491.41;;;9.45;73.16
48630;BME280;34426;52.180;4.462;2023-05-02T05:14:15;102498.50;;;9.41;73.80
48630;BME280;34426;52.180;4.462;2023-05-02T05:16:41;102506.00;;;9.47;73.01
48630;BME280;34426;52.180;4.462;2023-05-02T05:19:07;102502.56;;;9.45;72.78
48630;BME280;34426;52.180;4.462;2023-05-02T05:21:37;102503.00;;;9.42;73.16
48630;BME280;34426;52.180;4.462;2023-05-02T05:24:05;102523.19;;;9.44;73.25
48630;BME280;34426;52.180;4.462;2023-05-02T05:26:30;102520.63;;;9.36;73.38
48630;BME280;34426;52.180;4.462;2023-05-02T05:28:59;102518.41;;;9.57;73.21
48630;BME280;34426;52.180;4.462;2023-05-02T05:31:24;102520.09;;;9.65;73.07
48630;BME280;34426;52.180;4.462;2023-05-02T05:33:50;102515.38;;;9.59;72.50
48630;BME280;34426;52.180;4.462;2023-05-02T05:36:15;102527.84;;;9.56;72.40
48630;BME280;34426;52.180;4.462;2023-05-02T05:38:42;102534.72;;;9.60;71.65
48630;BME280;34426;52.180;4.462;2023-05-02T05:41:11;102536.66;;;9.60;71.11
48630;BME280;34426;52.180;4.462;2023-05-02T05:43:37;102543.59;;;9.44;70.48
48630;BME280;34426;52.180;4.462;2023-05-02T05:46:02;102551.56;;;9.41;70.97
48630;BME280;34426;52.180;4.462;2023-05-02T05:48:28;102563.16;;;9.38;71.00
48630;BME280;34426;52.180;4.462;2023-05-02T05:50:57;102570.25;;;9.47;69.93
48630;BME280;34426;52.180;4.462;2023-05-02T05:53:25;102561.00;;;9.53;70.21
48630;BME280;34426;52.180;4.462;2023-05-02T05:55:54;102572.63;;;9.37;69.73
48630;BME280;34426;52.180;4.462;2023-05-02T05:58:19;102577.75;;;9.53;69.07
48630;BME280;34426;52.180;4.462;2023-05-02T06:00:45;102577.75;;;9.53;68.70
48630;BME280;34426;52.180;4.462;2023-05-02T06:03:10;102579.41;;;9.60;67.95
48630;BME280;34426;52.180;4.462;2023-05-02T06:05:36;102584.78;;;9.68;68.43
48630;BME280;34426;52.180;4.462;2023-05-02T06:08:01;102599.81;;;9.67;68.45
48630;BME280;34426;52.180;4.462;2023-05-02T06:10:27;102596.38;;;9.72;67.93
48630;BME280;34426;52.180;4.462;2023-05-02T06:12:54;102598.94;;;9.80;68.62
48630;BME280;34426;52.180;4.462;2023-05-02T06:15:19;102600.66;;;9.81;69.03
48630;BME280;34426;52.180;4.462;2023-05-02T06:17:45;102599.56;;;9.82;68.62
48630;BME280;34426;52.180;4.462;2023-05-02T06:20:11;102606.00;;;9.83;68.97
48630;BME280;34426;52.180;4.462;2023-05-02T06:22:36;102599.09;;;9.92;68.17
48630;BME280;34426;52.180;4.462;2023-05-02T06:25:02;102607.28;;;9.93;67.34
48630;BME280;34426;52.180;4.462;2023-05-02T06:27:28;102606.19;;;9.94;68.13
48630;BME280;34426;52.180;4.462;2023-05-02T06:29:55;102611.06;;;10.06;68.06
48630;BME280;34426;52.180;4.462;2023-05-02T06:32:20;102622.88;;;10.14;66.61
48630;BME280;34426;52.180;4.462;2023-05-02T06:34:50;102619.66;;;10.11;65.91
48630;BME280;34426;52.180;4.462;2023-05-02T06:37:18;102631.28;;;10.08;66.78
48630;BME280;34426;52.180;4.462;2023-05-02T06:39:44;102633.41;;;10.12;65.70
48630;BME280;34426;52.180;4.462;2023-05-02T06:42:09;102645.28;;;10.01;65.36
48630;BME280;34426;52.180;4.462;2023-05-02T06:44:35;102642.69;;;9.99;66.48
48630;BME280;34426;52.180;4.462;2023-05-02T06:47:03;102650.22;;;9.99;66.74
48630;BME280;34426;52.180;4.462;2023-05-02T06:49:29;102656.44;;;10.08;67.04
48630;BME280;34426;52.180;4.462;2023-05-02T06:51:54;102662.97;;;9.95;67.49
48630;BME280;34426;52.180;4.462;2023-05-02T06:54:19;102660.78;;;9.97;67.23
48630;BME280;34426;52.180;4.462;2023-05-02T06:56:45;102666.09;;;10.12;65.55
48630;BME280;34426;52.180;4.462;2023-05-02T06:59:10;102663.94;;;10.14;66.21
48630;BME280;34426;52.180;4.462;2023-05-02T07:01:39;102670.84;;;10.24;65.32
48630;BME280;34426;52.180;4.462;2023-05-02T07:04:06;102668.00;;;10.31;65.20
48630;BME280;34426;52.180;4.462;2023-05-02T07:06:32;102678.97;;;10.32;63.37
48630;BME280;34426;52.180;4.462;2023-05-02T07:08:57;102675.09;;;10.33;62.77
48630;BME280;34426;52.180;4.462;2023-05-02T07:11:23;102670.59;;;10.26;63.56
48630;BME280;34426;52.180;4.462;2023-05-02T07:13:49;102665.84;;;10.33;63.49
48630;BME280;34426;52.180;4.462;2023-05-02T07:16:15;102674.88;;;10.35;65.26
48630;BME280;34426;52.180;4.462;2023-05-02T07:18:41;102672.00;;;10.48;63.95
48630;BME280;34426;52.180;4.462;2023-05-02T07:21:11;102671.41;;;10.78;60.66
48630;BME280;34426;52.180;4.462;2023-05-02T07:23:37;102670.59;;;10.71;58.13
48630;BME280;34426;52.180;4.462;2023-05-02T07:26:03;102672.13;;;10.66;58.51
48630;BME280;34426;52.180;4.462;2023-05-02T07:28:32;102676.38;;;10.76;57.47
48630;BME280;34426;52.180;4.462;2023-05-02T07:30:57;102678.34;;;10.69;58.23
48630;BME280;34426;52.180;4.462;2023-05-02T07:33:27;102676.63;;;10.68;56.50
48630;BME280;34426;52.180;4.462;2023-05-02T07:35:54;102689.16;;;10.58;57.75
48630;BME280;34426;52.180;4.462;2023-05-02T07:38:22;102699.28;;;10.59;58.13
48630;BME280;34426;52.180;4.462;2023-05-02T07:40:52;102692.09;;;10.39;55.84
48630;BME280;34426;52.180;4.462;2023-05-02T07:43:18;102704.69;;;10.54;56.22
48630;BME280;34426;52.180;4.462;2023-05-02T07:45:46;102701.63;;;10.62;56.77
48630;BME280;34426;52.180;4.462;2023-05-02T07:48:14;102708.13;;;10.56;56.67
48630;BME280;34426;52.180;4.462;2023-05-02T07:50:40;102707.16;;;10.31;56.19
48630;BME280;34426;52.180;4.462;2023-05-02T07:53:06;102716.41;;;10.31;55.12
48630;BME280;34426;52.180;4.462;2023-05-02T07:55:33;102717.28;;;10.32;55.33
48630;BME280;34426;52.180;4.462;2023-05-02T07:57:59;102713.38;;;10.40;54.93
48630;BME280;34426;52.180;4.462;2023-05-02T08:00:28;102711.59;;;10.45;54.51
48630;BME280;34426;52.180;4.462;2023-05-02T08:02:53;102723.22;;;10.42;54.33
48630;BME280;34426;52.180;4.462;2023-05-02T08:05:19;102716.53;;;10.50;55.73
48630;BME280;34426;52.180;4.462;2023-05-02T08:07:44;102707.44;;;10.61;56.18
48630;BME280;34426;52.180;4.462;2023-05-02T08:10:10;102707.38;;;10.74;54.34
48630;BME280;34426;52.180;4.462;2023-05-02T08:12:38;102711.00;;;10.81;56.16
48630;BME280;34426;52.180;4.462;2023-05-02T08:15:05;102723.38;;;10.98;53.88
48630;BME280;34426;52.180;4.462;2023-05-02T08:17:30;102720.84;;;10.90;53.28
48630;BME280;34426;52.180;4.462;2023-05-02T08:19:56;102725.69;;;10.77;53.69
48630;BME280;34426;52.180;4.462;2023-05-02T08:22:24;102724.72;;;10.89;52.66
48630;BME280;34426;52.180;4.462;2023-05-02T08:24:53;102716.09;;;10.91;52.85
48630;BME280;34426;52.180;4.462;2023-05-02T08:27:19;102718.19;;;11.02;53.12
48630;BME280;34426;52.180;4.462;2023-05-02T08:29:46;102736.44;;;10.80;53.24
48630;BME280;34426;52.180;4.462;2023-05-02T08:32:11;102730.63;;;10.75;54.03
48630;BME280;34426;52.180;4.462;2023-05-02T08:34:37;102734.59;;;10.98;54.97
48630;BME280;34426;52.180;4.462;2023-05-02T08:37:07;102740.41;;;11.28;53.77
48630;BME280;34426;52.180;4.462;2023-05-02T08:39:35;102745.53;;;11.31;54.02
48630;BME280;34426;52.180;4.462;2023-05-02T08:42:05;102752.25;;;10.99;55.02
48630;BME280;34426;52.180;4.462;2023-05-02T08:44:31;102747.19;;;11.14;52.90
48630;BME280;34426;52.180;4.462;2023-05-02T08:47:04;102740.31;;;11.42;51.01
48630;BME280;34426;52.180;4.462;2023-05-02T08:49:32;102742.59;;;11.76;49.91
48630;BME280;34426;52.180;4.462;2023-05-02T08:51:59;102736.31;;;12.06;49.33
48630;BME280;34426;52.180;4.462;2023-05-02T08:54:26;102747.53;;;12.24;47.66
48630;BME280;34426;52.180;4.462;2023-05-02T08:56:52;102754.47;;;12.21;49.03
48630;BME280;34426;52.180;4.462;2023-05-02T08:59:17;102747.53;;;12.42;47.69
48630;BME280;34426;52.180;4.462;2023-05-02T09:01:44;102754.84;;;12.07;48.89
48630;BME280;34426;52.180;4.462;2023-05-02T09:04:14;102754.34;;;11.66;48.45
48630;BME280;34426;52.180;4.462;2023-05-02T09:06:40;102752.31;;;11.49;49.96
48630;BME280;34426;52.180;4.462;2023-05-02T09:09:06;102756.91;;;11.68;50.78
48630;BME280;34426;52.180;4.462;2023-05-02T09:11:31;102761.81;;;11.48;53.19
48630;BME280;34426;52.180;4.462;2023-05-02T09:13:57;102759.28;;;11.40;52.02
48630;BME280;34426;52.180;4.462;2023-05-02T09:16:39;102778.44;;;11.43;49.41
48630;BME280;34426;52.180;4.462;2023-05-02T09:19:24;102778.19;;;11.51;52.57
48630;BME280;34426;52.180;4.462;2023-05-02T09:21:50;102769.34;;;11.79;50.74
48630;BME280;34426;52.180;4.462;2023-05-02T09:24:17;102773.69;;;11.99;50.85
48630;BME280;34426;52.180;4.462;2023-05-02T09:26:43;102774.25;;;12.26;50.93
48630;BME280;34426;52.180;4.462;2023-05-02T09:29:20;102774.03;;;12.64;49.45
48630;BME280;34426;52.180;4.462;2023-05-02T09:31:46;102775.47;;;12.55;49.30
48630;BME280;34426;52.180;4.462;2023-05-02T09:34:12;102783.03;;;12.55;50.56
48630;BME280;34426;52.180;4.462;2023-05-02T09:36:41;102786.19;;;12.58;51.00
48630;BME280;34426;52.180;4.462;2023-05-02T09:39:12;102788.44;;;12.68;48.53
48630;BME280;34426;52.180;4.462;2023-05-02T09:41:41;102790.00;;;12.64;49.20
48630;BME280;34426;52.180;4.462;2023-05-02T09:44:09;102794.22;;;12.73;49.26
48630;BME280;34426;52.180;4.462;2023-05-02T09:46:41;102788.44;;;12.86;49.14
48630;BME280;34426;52.180;4.462;2023-05-02T09:49:10;102793.38;;;13.03;49.02
48630;BME280;34426;52.180;4.462;2023-05-02T09:51:40;102803.81;;;12.84;47.10
48630;BME280;34426;52.180;4.462;2023-05-02T09:54:06;102800.53;;;12.69;46.50
48630;BME280;34426;52.180;4.462;2023-05-02T09:56:50;102802.50;;;12.68;48.63
48630;BME280;34426;52.180;4.462;2023-05-02T09:59:16;102815.97;;;12.78;47.06
48630;BME280;34426;52.180;4.462;2023-05-02T10:01:41;102811.00;;;12.80;48.90
48630;BME280;34426;52.180;4.462;2023-05-02T10:04:10;102810.22;;;12.73;50.50
48630;BME280;34426;52.180;4.462;2023-05-02T10:06:36;102809.19;;;12.12;51.13
48630;BME280;34426;52.180;4.462;2023-05-02T10:09:03;102807.63;;;11.91;51.71
48630;BME280;34426;52.180;4.462;2023-05-02T10:11:30;102808.88;;;11.95;49.59
48630;BME280;34426;52.180;4.462;2023-05-02T10:13:57;102810.47;;;11.85;53.36
48630;BME280;34426;52.180;4.462;2023-05-02T10:16:27;102801.75;;;12.18;52.11
48630;BME280;34426;52.180;4.462;2023-05-02T10:19:01;102813.44;;;12.15;49.47
48630;BME280;34426;52.180;4.462;2023-05-02T10:21:28;102816.19;;;12.21;50.48
48630;BME280;34426;52.180;4.462;2023-05-02T10:23:55;102827.09;;;12.29;50.52
48630;BME280;34426;52.180;4.462;2023-05-02T10:26:22;102819.22;;;12.20;49.01
48630;BME280;34426;52.180;4.462;2023-05-02T10:28:50;102831.88;;;12.29;46.78
48630;BME280;34426;52.180;4.462;2023-05-02T10:31:23;102826.41;;;12.34;51.72
48630;BME280;34426;52.180;4.462;2023-05-02T10:33:50;102831.66;;;12.49;46.79
48630;BME280;34426;52.180;4.462;2023-05-02T10:36:19;102828.00;;;12.66;52.58
48630;BME280;34426;52.180;4.462;2023-05-02T10:38:45;102822.00;;;12.81;46.60
48630;BME280;34426;52.180;4.462;2023-05-02T10:41:15;102834.16;;;12.93;45.58
48630;BME280;34426;52.180;4.462;2023-05-02T10:43:49;102823.31;;;12.79;50.36
48630;BME280;34426;52.180;4.462;2023-05-02T10:46:28;102826.75;;;12.81;47.32
48630;BME280;34426;52.180;4.462;2023-05-02T10:49:02;102828.63;;;12.50;50.63
48630;BME280;34426;52.180;4.462;2023-05-02T10:51:28;102826.13;;;12.79;49.25
48630;BME280;34426;52.180;4.462;2023-05-02T10:53:54;102839.19;;;13.03;45.83
48630;BME280;34426;52.180;4.462;2023-05-02T10:56:23;102832.44;;;12.92;46.69
48630;BME280;34426;52.180;4.462;2023-05-02T10:58:51;102833.63;;;12.85;47.80
48630;BME280;34426;52.180;4.462;2023-05-02T11:01:33;102840.41;;;12.77;49.44
48630;BME280;34426;52.180;4.462;2023-05-02T11:03:59;102846.56;;;12.68;50.80
48630;BME280;34426;52.180;4.462;2023-05-02T11:06:30;102844.22;;;12.83;48.23
48630;BME280;34426;52.180;4.462;2023-05-02T11:09:31;102845.16;;;12.77;45.25
48630;BME280;34426;52.180;4.462;2023-05-02T11:11:56;102847.44;;;12.86;51.98
48630;BME280;34426;52.180;4.462;2023-05-02T11:14:43;102845.47;;;12.87;46.23
48630;BME280;34426;52.180;4.462;2023-05-02T11:17:09;102846.09;;;12.89;44.20
48630;BME280;34426;52.180;4.462;2023-05-02T11:25:40;102855.31;;;12.96;45.08
48630;BME280;34426;52.180;4.462;2023-05-02T11:28:07;102846.28;;;13.06;47.52
48630;BME280;34426;52.180;4.462;2023-05-02T11:30:38;102854.22;;;12.97;43.46
48630;BME280;34426;52.180;4.462;2023-05-02T11:33:15;102865.28;;;12.92;44.09
48630;BME280;34426;52.180;4.462;2023-05-02T11:35:45;102858.25;;;13.01;45.88
48630;BME280;34426;52.180;4.462;2023-05-02T11:38:12;102870.72;;;13.05;47.62
48630;BME280;34426;52.180;4.462;2023-05-02T11:40:39;102859.97;;;13.20;44.94
48630;BME280;34426;52.180;4.462;2023-05-02T11:43:12;102867.38;;;13.15;45.71
48630;BME280;34426;52.180;4.462;2023-05-02T11:45:39;102870.41;;;13.13;42.88
48630;BME280;34426;52.180;4.462;2023-05-02T11:48:05;102883.47;;;13.26;43.75
48630;BME280;34426;52.180;4.462;2023-05-02T11:50:40;102876.22;;;13.18;42.87
48630;BME280;34426;52.180;4.462;2023-05-02T11:53:09;102884.16;;;13.03;43.15
48630;BME280;34426;52.180;4.462;2023-05-02T11:55:35;102895.16;;;13.05;43.20
48630;BME280;34426;52.180;4.462;2023-05-02T11:58:01;102888.91;;;13.03;42.25
48630;BME280;34426;52.180;4.462;2023-05-02T12:00:26;102897.88;;;13.11;43.37
48630;BME280;34426;52.180;4.462;2023-05-02T12:02:55;102885.50;;;13.19;43.50
48630;BME280;34426;52.180;4.462;2023-05-02T12:05:27;102889.09;;;12.89;42.66
48630;BME280;34426;52.180;4.462;2023-05-02T12:07:53;102906.16;;;13.06;45.40
48630;BME280;34426;52.180;4.462;2023-05-02T12:10:18;102900.56;;;12.88;43.23
48630;BME280;34426;52.180;4.462;2023-05-02T12:12:44;102899.78;;;12.99;43.07
48630;BME280;34426;52.180;4.462;2023-05-02T12:15:30;102898.34;;;13.08;42.59
48630;BME280;34426;52.180;4.462;2023-05-02T12:17:59;102899.47;;;12.89;43.61
48630;BME280;34426;52.180;4.462;2023-05-02T12:20:25;102898.06;;;13.16;48.51
48630;BME280;34426;52.180;4.462;2023-05-02T12:22:51;102897.47;;;13.44;47.64
48630;BME280;34426;52.180;4.462;2023-05-02T12:25:17;102892.53;;;13.58;47.38
48630;BME280;34426;52.180;4.462;2023-05-02T12:27:58;102899.88;;;13.59;45.16
48630;BME280;34426;52.180;4.462;2023-05-02T12:30:31;102903.25;;;13.79;40.97
48630;BME280;34426;52.180;4.462;2023-05-02T12:33:01;102916.63;;;13.95;42.83
48630;BME280;34426;52.180;4.462;2023-05-02T12:35:27;102919.28;;;13.90;41.31
48630;BME280;34426;52.180;4.462;2023-05-02T12:37:54;102913.97;;;14.12;44.45
48630;BME280;34426;52.180;4.462;2023-05-02T12:40:20;102916.97;;;14.29;45.32
48630;BME280;34426;52.180;4.462;2023-05-02T12:42:57;102913.91;;;14.77;41.86
48630;BME280;34426;52.180;4.462;2023-05-02T12:45:23;102917.22;;;14.86;39.05
48630;BME280;34426;52.180;4.462;2023-05-02T12:47:49;102912.19;;;15.00;42.68
48630;BME280;34426;52.180;4.462;2023-05-02T12:50:16;102919.03;;;15.15;40.26
48630;BME280;34426;52.180;4.462;2023-05-02T12:52:46;102917.19;;;15.61;38.28
48630;BME280;34426;52.180;4.462;2023-05-02T12:55:15;102926.03;;;15.53;43.15
48630;BME280;34426;52.180;4.462;2023-05-02T12:57:41;102922.28;;;16.21;37.19
48630;BME280;34426;52.180;4.462;2023-05-02T13:00:08;102925.69;;;16.23;39.57
48630;BME280;34426;52.180;4.462;2023-05-02T13:02:34;102928.19;;;16.70;35.86
48630;BME280;34426;52.180;4.462;2023-05-02T13:05:00;102923.22;;;17.15;34.00